createdAt,value
2023-04-18T00:00:53.402Z,14.80
2023-04-18T00:01:53.499Z,16.40
2023-04-18T00:02:53.596Z,14.70
2023-04-18T00:03:53.530Z,16.10
2023-04-18T00:04:53.569Z,12.50
2023-04-18T00:05:53.347Z,17.70
2023-04-18T00:06:53.353Z,18.00
2023-04-18T00:07:53.414Z,15.70
2023-04-18T00:08:53.419Z,16.60
2023-04-18T00:09:53.331Z,15.30
2023-04-18T00:10:53.368Z,21.00
2023-04-18T00:11:53.301Z,13.00
2023-04-18T00:12:53.302Z,16.50
2023-04-18T00:13:53.350Z,19.90
2023-04-18T00:14:53.286Z,19.50
2023-04-18T00:15:53.299Z,14.70
2023-04-18T00:16:53.550Z,17.70
2023-04-18T00:17:53.364Z,16.10
2023-04-18T00:18:53.251Z,15.80
2023-04-18T00:19:53.294Z,18.80
2023-04-18T00:20:53.257Z,21.70
2023-04-18T00:21:53.316Z,14.20
2023-04-18T00:22:53.289Z,14.10
2023-04-18T00:23:53.372Z,17.30
2023-04-18T00:24:53.425Z,16.30
2023-04-18T00:25:53.357Z,18.50
2023-04-18T00:26:53.196Z,16.10
2023-04-18T00:27:53.209Z,13.80
2023-04-18T00:28:53.336Z,14.80
2023-04-18T00:29:53.187Z,19.10
2023-04-18T00:30:53.242Z,14.20
2023-04-18T00:31:53.195Z,16.30
2023-04-18T00:32:53.237Z,16.00
2023-04-18T00:33:53.149Z,19.40
2023-04-18T00:34:53.185Z,19.40
2023-04-18T00:35:53.164Z,17.40
2023-04-18T00:36:53.143Z,13.50
2023-04-18T00:37:53.135Z,14.80
2023-04-18T00:38:53.164Z,14.60
2023-04-18T00:39:53.177Z,17.80
2023-04-18T00:40:53.155Z,17.10
2023-04-18T00:41:53.101Z,14.60
2023-04-18T00:42:53.104Z,14.80
2023-04-18T00:43:53.113Z,15.10
2023-04-18T00:44:53.062Z,18.70
2023-04-18T00:45:53.134Z,20.30
2023-04-18T00:46:53.080Z,16.80
2023-04-18T00:47:53.223Z,21.20
2023-04-18T00:48:53.031Z,16.70
2023-04-18T00:49:53.054Z,14.40
2023-04-18T00:50:53.019Z,16.40
2023-04-18T00:51:53.069Z,19.40
2023-04-18T00:52:53.069Z,15.00
2023-04-18T00:53:53.022Z,17.90
2023-04-18T00:54:52.989Z,14.90
2023-04-18T00:55:53.022Z,13.40
2023-04-18T00:56:52.999Z,18.40
2023-04-18T00:57:53.005Z,16.70
2023-04-18T00:58:53.017Z,17.60
2023-04-18T00:59:52.952Z,21.70
2023-04-18T01:00:52.971Z,19.30
2023-04-18T01:01:53.104Z,19.30
2023-04-18T01:02:53.057Z,19.30
2023-04-18T01:03:53.155Z,18.30
2023-04-18T01:04:52.985Z,16.30
2023-04-18T01:05:52.952Z,16.70
2023-04-18T01:06:52.892Z,17.50
2023-04-18T01:07:52.927Z,17.10
2023-04-18T01:08:52.937Z,18.80
2023-04-18T01:09:52.906Z,17.50
2023-04-18T01:10:52.951Z,21.40
2023-04-18T01:11:52.876Z,20.10
2023-04-18T01:12:52.866Z,23.20
2023-04-18T01:14:08.633Z,16.80
2023-04-18T01:14:53.863Z,17.60
2023-04-18T01:15:52.883Z,14.90
2023-04-18T01:16:52.875Z,22.40
2023-04-18T01:17:52.864Z,16.70
2023-04-18T01:18:52.842Z,20.90
2023-04-18T01:19:52.821Z,19.30
2023-04-18T01:20:52.830Z,18.70
2023-04-18T01:21:52.814Z,17.60
2023-04-18T01:22:53.211Z,15.00
2023-04-18T01:23:52.775Z,19.00
2023-04-18T01:24:52.788Z,15.60
2023-04-18T01:25:52.777Z,20.60
2023-04-18T01:26:52.779Z,16.20
2023-04-18T01:27:52.924Z,15.70
2023-04-18T01:28:52.800Z,17.60
2023-04-18T01:29:52.858Z,17.70
2023-04-18T01:30:52.785Z,16.50
2023-04-18T01:31:52.719Z,18.30
2023-04-18T01:32:52.789Z,19.20
2023-04-18T01:33:52.718Z,16.70
2023-04-18T01:34:52.771Z,15.40
2023-04-18T01:35:52.774Z,18.40
2023-04-18T01:36:52.865Z,18.60
2023-04-18T01:37:52.710Z,21.20
2023-04-18T01:38:52.693Z,19.40
2023-04-18T01:39:52.717Z,18.30
2023-04-18T01:40:52.734Z,17.30
2023-04-18T01:41:52.679Z,18.50
2023-04-18T01:42:52.670Z,19.30
2023-04-18T01:43:52.670Z,20.00
2023-04-18T01:44:52.663Z,20.00
2023-04-18T01:46:08.794Z,19.40
2023-04-18T01:46:52.707Z,18.00
2023-04-18T01:47:52.704Z,19.70
2023-04-18T01:48:52.651Z,22.40
2023-04-18T01:49:52.631Z,22.80
2023-04-18T01:50:52.612Z,20.10
2023-04-18T01:51:52.659Z,20.30
2023-04-18T01:52:52.584Z,20.40
2023-04-18T01:53:52.599Z,21.20
2023-04-18T01:54:52.588Z,18.90
2023-04-18T01:55:52.567Z,22.40
2023-04-18T01:56:52.551Z,22.50
2023-04-18T01:57:52.596Z,18.40
2023-04-18T01:58:52.551Z,23.30
2023-04-18T01:59:52.543Z,22.80
2023-04-18T02:00:52.533Z,24.60
2023-04-18T02:01:52.566Z,22.40
2023-04-18T02:02:52.664Z,22.10
2023-04-18T02:03:52.834Z,23.40
2023-04-18T02:04:52.521Z,22.80
2023-04-18T02:05:52.558Z,22.60
2023-04-18T02:06:52.502Z,21.10
2023-04-18T02:07:52.496Z,22.30
2023-04-18T02:08:52.490Z,22.90
2023-04-18T02:09:52.514Z,21.40
2023-04-18T02:10:52.482Z,21.10
2023-04-18T02:11:52.453Z,24.30
2023-04-18T02:12:52.463Z,21.20
2023-04-18T02:13:52.469Z,20.50
2023-04-18T02:14:52.423Z,25.40
2023-04-18T02:15:52.459Z,19.60
2023-04-18T02:16:52.451Z,23.50
2023-04-18T02:17:52.468Z,24.80
2023-04-18T02:18:52.435Z,24.10
2023-04-18T02:19:52.420Z,21.70
2023-04-18T02:20:52.384Z,24.20
2023-04-18T02:21:52.450Z,24.50
2023-04-18T02:22:52.372Z,22.40
2023-04-18T02:23:52.374Z,24.60
2023-04-18T02:24:52.367Z,23.40
2023-04-18T02:25:52.348Z,23.20
2023-04-18T02:26:52.377Z,24.80
2023-04-18T02:27:52.736Z,22.20
2023-04-18T02:28:52.343Z,21.30
2023-04-18T02:29:52.338Z,26.30
2023-04-18T02:30:52.338Z,25.60
2023-04-18T02:31:52.356Z,24.50
2023-04-18T02:32:52.383Z,27.30
2023-04-18T02:33:52.316Z,23.30
2023-04-18T02:34:52.285Z,25.50
2023-04-18T02:35:52.271Z,27.10
2023-04-18T02:36:52.273Z,22.40
2023-04-18T02:37:52.278Z,24.40
2023-04-18T02:38:52.263Z,25.90
2023-04-18T02:39:52.286Z,24.40
2023-04-18T02:40:52.268Z,26.70
2023-04-18T02:41:52.245Z,24.10
2023-04-18T02:42:52.244Z,24.00
2023-04-18T02:43:52.232Z,23.40
2023-04-18T02:44:52.196Z,28.70
2023-04-18T02:45:52.274Z,27.40
2023-04-18T02:46:52.190Z,26.40
2023-04-18T02:47:56.228Z,24.30
2023-04-18T02:48:52.207Z,27.80
2023-04-18T02:49:52.176Z,26.90
2023-04-18T02:50:52.180Z,25.80
2023-04-18T02:51:52.213Z,26.10
2023-04-18T02:52:52.175Z,30.80
2023-04-18T02:53:52.147Z,27.60
2023-04-18T02:54:52.143Z,32.00
2023-04-18T02:55:52.133Z,25.80
2023-04-18T02:56:52.130Z,29.20
2023-04-18T02:57:52.186Z,27.30
2023-04-18T02:58:52.121Z,30.80
2023-04-18T02:59:52.107Z,28.30
2023-04-18T03:00:52.132Z,31.00
2023-04-18T03:01:52.100Z,27.20
2023-04-18T03:02:52.147Z,29.20
2023-04-18T03:03:52.117Z,30.50
2023-04-18T03:04:52.114Z,32.00
2023-04-18T03:05:52.062Z,34.70
2023-04-18T03:06:52.082Z,31.80
2023-04-18T03:07:52.076Z,33.70
2023-04-18T03:08:52.096Z,31.20
2023-04-18T03:09:52.075Z,31.00
2023-04-18T03:10:52.053Z,31.30
2023-04-18T03:11:52.020Z,28.40
2023-04-18T03:12:52.007Z,31.80
2023-04-18T03:13:52.022Z,30.80
2023-04-18T03:14:52.022Z,28.50
2023-04-18T03:15:52.077Z,29.70
2023-04-18T03:16:54.680Z,31.60
2023-04-18T03:17:52.024Z,34.60
2023-04-18T03:18:51.972Z,32.40
2023-04-18T03:19:51.987Z,30.70
2023-04-18T03:20:51.986Z,30.00
2023-04-18T03:21:51.986Z,29.80
2023-04-18T03:22:51.941Z,30.50
2023-04-18T03:23:51.924Z,29.50
2023-04-18T03:24:51.949Z,34.70
2023-04-18T03:25:51.910Z,32.20
2023-04-18T03:26:51.936Z,31.30
2023-04-18T03:27:51.936Z,30.70
2023-04-18T03:28:51.914Z,31.10
2023-04-18T03:29:51.897Z,29.40
2023-04-18T03:30:51.924Z,29.60
2023-04-18T03:31:51.904Z,29.60
2023-04-18T03:32:51.948Z,29.20
2023-04-18T03:33:52.280Z,28.20
2023-04-18T03:34:51.900Z,27.10
2023-04-18T03:35:51.862Z,33.20
2023-04-18T03:36:51.846Z,32.00
2023-04-18T03:37:51.829Z,29.90
2023-04-18T03:38:51.840Z,31.10
2023-04-18T03:39:51.922Z,29.30
2023-04-18T03:40:51.836Z,29.00
2023-04-18T03:41:51.821Z,30.80
2023-04-18T03:42:51.807Z,29.40
2023-04-18T03:43:51.781Z,30.30
2023-04-18T03:44:51.825Z,27.70
2023-04-18T03:45:51.794Z,28.00
2023-04-18T03:46:51.814Z,29.80
2023-04-18T03:47:51.850Z,29.40
2023-04-18T03:48:51.751Z,32.00
2023-04-18T03:49:51.752Z,30.70
2023-04-18T03:50:51.742Z,27.10
2023-04-18T03:51:51.790Z,28.10
2023-04-18T03:52:51.718Z,30.50
2023-04-18T03:53:51.746Z,31.50
2023-04-18T03:54:51.709Z,28.70
2023-04-18T03:55:51.715Z,26.30
2023-04-18T03:56:51.715Z,27.80
2023-04-18T03:57:51.738Z,29.20
2023-04-18T03:58:51.685Z,26.00
2023-04-18T03:59:51.670Z,27.90
2023-04-18T04:00:51.727Z,33.50
2023-04-18T04:01:51.726Z,26.90
2023-04-18T04:02:51.840Z,31.40
2023-04-18T04:03:51.922Z,25.70
2023-04-18T04:04:51.730Z,29.90
2023-04-18T04:05:51.657Z,27.10
2023-04-18T04:06:51.674Z,24.30
2023-04-18T04:07:51.626Z,26.00
2023-04-18T04:08:51.645Z,25.20
2023-04-18T04:09:51.671Z,27.70
2023-04-18T04:10:51.624Z,25.00
2023-04-18T04:11:51.643Z,28.70
2023-04-18T04:12:51.601Z,27.10
2023-04-18T04:13:51.585Z,30.40
2023-04-18T04:14:51.582Z,25.60
2023-04-18T04:15:51.615Z,25.40
2023-04-18T04:16:51.633Z,25.40
2023-04-18T04:17:51.642Z,24.40
2023-04-18T04:18:51.564Z,23.80
2023-04-18T04:19:51.558Z,23.80
2023-04-18T04:20:51.800Z,23.00
2023-04-18T04:21:51.577Z,27.10
2023-04-18T04:22:51.536Z,24.70
2023-04-18T04:23:51.588Z,24.70
2023-04-18T04:24:51.544Z,26.20
2023-04-18T04:25:51.529Z,24.00
2023-04-18T04:26:51.496Z,22.10
2023-04-18T04:27:51.665Z,21.80
2023-04-18T04:28:51.495Z,22.60
2023-04-18T04:29:51.503Z,25.60
2023-04-18T04:30:51.474Z,21.50
2023-04-18T04:31:51.517Z,22.80
2023-04-18T04:32:51.507Z,22.30
2023-04-18T04:33:51.741Z,22.60
2023-04-18T04:34:51.489Z,23.00
2023-04-18T04:35:51.456Z,24.70
2023-04-18T04:36:51.430Z,23.00
2023-04-18T04:37:51.445Z,23.50
2023-04-18T04:38:51.412Z,21.00
2023-04-18T04:39:51.671Z,22.30
2023-04-18T04:40:51.377Z,20.00
2023-04-18T04:41:51.450Z,22.10
2023-04-18T04:42:51.719Z,22.40
2023-04-18T04:43:51.508Z,22.20
2023-04-18T04:44:51.451Z,25.80
2023-04-18T04:45:51.808Z,24.30
2023-04-18T04:46:51.434Z,25.10
2023-04-18T04:47:51.406Z,21.80
2023-04-18T04:48:51.345Z,25.20
2023-04-18T04:49:51.330Z,20.40
2023-04-18T04:50:51.340Z,24.60
2023-04-18T04:51:51.351Z,23.40
2023-04-18T04:52:51.333Z,22.10
2023-04-18T04:53:51.332Z,21.50
2023-04-18T04:54:51.372Z,20.50
2023-04-18T04:55:51.394Z,19.60
2023-04-18T04:56:51.285Z,20.30
2023-04-18T04:57:51.317Z,18.80
2023-04-18T04:58:51.338Z,21.60
2023-04-18T04:59:51.325Z,23.90
2023-04-18T05:00:51.407Z,20.90
2023-04-18T05:01:51.403Z,21.30
2023-04-18T05:02:51.590Z,19.10
2023-04-18T05:03:51.405Z,21.80
2023-04-18T05:04:51.270Z,23.10
2023-04-18T05:05:51.248Z,22.10
2023-04-18T05:06:51.219Z,20.50
2023-04-18T05:07:51.258Z,19.40
2023-04-18T05:08:51.242Z,21.00
2023-04-18T05:09:51.550Z,18.90
2023-04-18T05:10:51.221Z,17.90
2023-04-18T05:11:51.262Z,19.70
2023-04-18T05:13:02.215Z,20.80
2023-04-18T05:13:52.582Z,20.80
2023-04-18T05:14:51.144Z,19.20
2023-04-18T05:15:51.294Z,18.20
2023-04-18T05:16:51.339Z,17.60
2023-04-18T05:17:51.202Z,22.50
2023-04-18T05:18:51.146Z,21.50
2023-04-18T05:19:51.180Z,19.20
2023-04-18T05:20:51.128Z,20.00
2023-04-18T05:21:51.160Z,20.40
2023-04-18T05:22:51.093Z,20.30
2023-04-18T05:23:51.089Z,19.00
2023-04-18T05:24:51.461Z,19.30
2023-04-18T05:25:51.222Z,16.80
2023-04-18T05:26:51.087Z,22.10
2023-04-18T05:27:51.116Z,19.90
2023-04-18T05:28:51.053Z,19.20
2023-04-18T05:29:51.061Z,19.40
2023-04-18T05:30:51.094Z,20.00
2023-04-18T05:31:51.026Z,18.60
2023-04-18T05:32:51.211Z,18.50
2023-04-18T05:33:51.687Z,19.50
2023-04-18T05:34:51.033Z,24.90
2023-04-18T05:35:51.108Z,17.20
2023-04-18T05:36:51.091Z,19.00
2023-04-18T05:37:51.178Z,20.70
2023-04-18T05:38:51.157Z,18.40
2023-04-18T05:39:51.297Z,19.00
2023-04-18T05:40:51.264Z,17.50
2023-04-18T05:41:51.450Z,17.50
2023-04-18T05:42:51.358Z,16.60
2023-04-18T05:44:01.918Z,16.80
2023-04-18T05:44:52.972Z,17.70
2023-04-18T05:45:51.525Z,16.50
2023-04-18T05:46:50.998Z,17.40
2023-04-18T05:47:51.318Z,19.60
2023-04-18T05:48:51.297Z,18.70
2023-04-18T05:49:51.191Z,18.60
2023-04-18T05:50:51.304Z,18.80
2023-04-18T05:51:50.897Z,18.80
2023-04-18T05:52:50.887Z,17.50
2023-04-18T05:53:51.360Z,19.50
2023-04-18T05:54:50.931Z,17.60
2023-04-18T05:55:51.005Z,18.20
2023-04-18T05:56:52.063Z,16.90
2023-04-18T05:57:51.664Z,15.80
2023-04-18T05:58:51.222Z,18.90
2023-04-18T05:59:50.910Z,17.30
2023-04-18T06:00:51.011Z,15.50
2023-04-18T06:01:51.239Z,18.40
2023-04-18T06:02:52.315Z,17.30
2023-04-18T06:03:51.840Z,19.70
2023-04-18T06:04:51.355Z,17.70
2023-04-18T06:05:51.466Z,19.60
2023-04-18T06:06:51.575Z,17.30
2023-04-18T06:07:51.425Z,17.60
2023-04-18T06:08:51.673Z,15.70
2023-04-18T06:09:51.035Z,16.20
2023-04-18T06:10:50.956Z,16.70
2023-04-18T06:11:51.360Z,16.80
2023-04-18T06:12:51.147Z,18.90
2023-04-18T06:13:51.226Z,18.20
2023-04-18T06:14:51.195Z,17.00
2023-04-18T06:15:50.832Z,18.80
2023-04-18T06:16:51.355Z,21.00
2023-04-18T06:17:51.121Z,18.30
2023-04-18T06:18:51.308Z,18.20
2023-04-18T06:19:51.433Z,15.70
2023-04-18T06:20:51.809Z,17.40
2023-04-18T06:21:50.698Z,17.60
2023-04-18T06:22:50.727Z,18.60
2023-04-18T06:23:50.726Z,19.90
2023-04-18T06:24:50.862Z,19.20
2023-04-18T06:25:56.764Z,15.70
2023-04-18T06:26:51.053Z,16.80
2023-04-18T06:27:50.705Z,18.20
2023-04-18T06:28:50.813Z,17.00
2023-04-18T06:29:50.893Z,15.90
2023-04-18T06:30:50.999Z,16.90
2023-04-18T06:31:51.046Z,17.70
2023-04-18T06:32:51.393Z,17.40
2023-04-18T06:33:50.730Z,14.30
2023-04-18T06:34:51.386Z,16.60
2023-04-18T06:35:51.178Z,15.90
2023-04-18T06:36:51.516Z,18.20
2023-04-18T06:37:50.875Z,18.20
2023-04-18T06:38:51.117Z,18.70
2023-04-18T06:39:50.845Z,17.20
2023-04-18T06:40:50.598Z,18.20
2023-04-18T06:41:51.095Z,14.90
2023-04-18T06:42:51.432Z,16.60
2023-04-18T06:44:02.673Z,17.60
2023-04-18T06:44:52.940Z,20.40
2023-04-18T06:45:50.535Z,26.80
2023-04-18T06:46:50.509Z,15.80
2023-04-18T06:47:50.521Z,14.60
2023-04-18T06:48:51.519Z,16.40
2023-04-18T06:49:50.467Z,17.60
2023-04-18T06:50:50.525Z,16.30
2023-04-18T06:51:50.488Z,15.30
2023-04-18T06:52:50.467Z,15.40
2023-04-18T06:53:50.435Z,17.20
2023-04-18T06:54:50.453Z,18.50
2023-04-18T06:55:50.428Z,16.50
2023-04-18T06:56:50.464Z,14.80
2023-04-18T06:57:50.435Z,17.90
2023-04-18T06:58:50.418Z,14.40
2023-04-18T06:59:50.435Z,18.30
2023-04-18T07:00:50.473Z,15.90
2023-04-18T07:01:50.396Z,18.40
2023-04-18T07:02:50.570Z,17.80
2023-04-18T07:03:50.461Z,15.30
2023-04-18T07:04:50.413Z,15.40
2023-04-18T07:05:50.402Z,19.50
2023-04-18T07:06:50.353Z,16.30
2023-04-18T07:07:50.381Z,19.10
2023-04-18T07:08:51.291Z,19.30
2023-04-18T07:09:50.391Z,16.80
2023-04-18T07:10:50.323Z,16.80
2023-04-18T07:11:51.545Z,15.00
2023-04-18T07:12:50.322Z,17.60
2023-04-18T07:13:50.329Z,15.10
2023-04-18T07:14:50.353Z,16.10
2023-04-18T07:15:50.282Z,16.30
2023-04-18T07:16:50.323Z,16.60
2023-04-18T07:17:50.332Z,16.60
2023-04-18T07:18:50.281Z,18.00
2023-04-18T07:19:50.270Z,16.00
2023-04-18T07:20:50.349Z,15.10
2023-04-18T07:21:50.268Z,16.20
2023-04-18T07:22:50.252Z,14.80
2023-04-18T07:23:50.256Z,15.20
2023-04-18T07:24:50.246Z,15.00
2023-04-18T07:25:50.233Z,16.30
2023-04-18T07:26:50.264Z,14.20
2023-04-18T07:27:50.313Z,14.70
2023-04-18T07:28:50.191Z,16.20
2023-04-18T07:29:50.239Z,16.90
2023-04-18T07:30:50.268Z,14.50
2023-04-18T07:31:50.173Z,16.30
2023-04-18T07:32:50.391Z,17.10
2023-04-18T07:33:50.179Z,15.10
2023-04-18T07:34:50.141Z,16.60
2023-04-18T07:35:50.167Z,16.00
2023-04-18T07:36:50.159Z,13.60
2023-04-18T07:37:50.164Z,16.20
2023-04-18T07:38:50.180Z,17.00
2023-04-18T07:39:50.132Z,15.10
2023-04-18T07:40:50.120Z,14.40
2023-04-18T07:41:50.130Z,16.20
2023-04-18T07:42:50.132Z,15.90
2023-04-18T07:43:50.114Z,14.90
2023-04-18T07:44:50.169Z,13.80
2023-04-18T07:45:50.177Z,13.40
2023-04-18T07:46:50.146Z,12.40
2023-04-18T07:47:50.110Z,15.70
2023-04-18T07:48:50.049Z,13.90
2023-04-18T07:49:50.070Z,14.20
2023-04-18T07:50:50.118Z,12.30
2023-04-18T07:51:50.039Z,13.10
2023-04-18T07:52:50.036Z,12.50
2023-04-18T07:53:50.015Z,12.20
2023-04-18T07:54:50.021Z,12.30
2023-04-18T07:55:50.026Z,15.20
2023-04-18T07:56:50.055Z,15.10
2023-04-18T07:57:50.025Z,16.90
2023-04-18T07:58:49.986Z,12.20
2023-04-18T07:59:49.986Z,14.60
2023-04-18T08:00:49.994Z,12.60
2023-04-18T08:01:49.989Z,11.70
2023-04-18T08:02:50.195Z,11.00
2023-04-18T08:03:50.064Z,11.90
2023-04-18T08:04:50.147Z,13.20
2023-04-18T08:05:49.944Z,13.10
2023-04-18T08:06:49.958Z,12.70
2023-04-18T08:07:49.937Z,15.40
2023-04-18T08:08:49.985Z,12.50
2023-04-18T08:09:49.902Z,11.30
2023-04-18T08:10:49.941Z,12.90
2023-04-18T08:11:49.921Z,12.10
2023-04-18T08:12:49.897Z,15.70
2023-04-18T08:13:49.868Z,12.20
2023-04-18T08:14:49.942Z,15.70
2023-04-18T08:15:49.997Z,10.90
2023-04-18T08:16:49.878Z,12.20
2023-04-18T08:17:49.908Z,11.30
2023-04-18T08:18:49.879Z,11.70
2023-04-18T08:19:49.838Z,13.20
2023-04-18T08:20:49.857Z,12.70
2023-04-18T08:21:49.866Z,13.60
2023-04-18T08:23:04.688Z,12.20
2023-04-18T08:23:50.799Z,12.00
2023-04-18T08:25:03.243Z,12.10
2023-04-18T08:25:50.844Z,10.00
2023-04-18T08:26:49.855Z,12.90
2023-04-18T08:27:49.774Z,11.80
2023-04-18T08:28:49.779Z,13.70
2023-04-18T08:29:49.783Z,10.60
2023-04-18T08:30:49.778Z,12.10
2023-04-18T08:31:49.891Z,11.10
2023-04-18T08:32:49.833Z,10.50
2023-04-18T08:33:49.743Z,14.60
2023-04-18T08:34:49.749Z,11.40
2023-04-18T08:35:49.730Z,11.70
2023-04-18T08:36:49.714Z,13.40
2023-04-18T08:37:49.752Z,11.30
2023-04-18T08:38:50.373Z,12.70
2023-04-18T08:39:49.721Z,11.90
2023-04-18T08:40:49.691Z,12.80
2023-04-18T08:41:49.735Z,12.30
2023-04-18T08:42:49.736Z,11.00
2023-04-18T08:43:49.721Z,10.60
2023-04-18T08:44:49.700Z,13.70
2023-04-18T08:45:49.697Z,10.60
2023-04-18T08:46:49.772Z,9.30
2023-04-18T08:47:49.665Z,11.20
2023-04-18T08:48:49.629Z,10.90
2023-04-18T08:49:49.735Z,11.90
2023-04-18T08:50:49.646Z,10.80
2023-04-18T08:51:49.617Z,10.20
2023-04-18T08:52:49.621Z,11.90
2023-04-18T08:53:49.597Z,12.60
2023-04-18T08:54:49.579Z,12.80
2023-04-18T08:55:49.673Z,10.80
2023-04-18T08:56:49.601Z,12.80
2023-04-18T08:57:49.577Z,12.60
2023-04-18T08:58:49.578Z,11.20
2023-04-18T08:59:50.941Z,10.30
2023-04-18T09:00:49.557Z,15.20
2023-04-18T09:01:49.876Z,11.70
2023-04-18T09:02:50.655Z,10.30
2023-04-18T09:03:49.601Z,13.00
2023-04-18T09:04:49.540Z,10.30
2023-04-18T09:05:49.512Z,9.30
2023-04-18T09:06:49.517Z,10.50
2023-04-18T09:07:49.568Z,11.20
2023-04-18T09:08:49.506Z,9.10
2023-04-18T09:09:49.493Z,10.30
2023-04-18T09:10:49.474Z,12.10
2023-04-18T09:11:49.479Z,10.70
2023-04-18T09:12:49.641Z,10.40
2023-04-18T09:13:49.482Z,9.80
2023-04-18T09:14:49.469Z,14.00
2023-04-18T09:15:49.471Z,10.80
2023-04-18T09:16:49.457Z,11.50
2023-04-18T09:17:49.456Z,13.70
2023-04-18T09:18:49.430Z,12.30
2023-04-18T09:19:49.493Z,11.40
2023-04-18T09:20:49.418Z,10.60
2023-04-18T09:21:49.384Z,10.40
2023-04-18T09:22:49.386Z,12.00
2023-04-18T09:23:49.397Z,9.60
2023-04-18T09:24:49.376Z,10.30
2023-04-18T09:25:49.415Z,10.10
2023-04-18T09:26:49.366Z,11.40
2023-04-18T09:27:49.364Z,10.40
2023-04-18T09:28:49.342Z,10.60
2023-04-18T09:29:49.383Z,11.80
2023-04-18T09:30:49.337Z,10.80
2023-04-18T09:31:49.358Z,13.00
2023-04-18T09:32:49.315Z,11.80
2023-04-18T09:33:49.338Z,12.40
2023-04-18T09:34:49.343Z,11.60
2023-04-18T09:35:49.298Z,11.00
2023-04-18T09:36:49.305Z,14.50
2023-04-18T09:37:49.323Z,14.60
2023-04-18T09:38:49.292Z,13.20
2023-04-18T09:39:49.275Z,15.20
2023-04-18T09:40:49.313Z,13.80
2023-04-18T09:41:49.254Z,14.70
2023-04-18T09:42:49.261Z,13.00
2023-04-18T09:43:49.307Z,12.00
2023-04-18T09:44:49.229Z,13.40
2023-04-18T09:45:49.297Z,14.60
2023-04-18T09:46:49.325Z,14.90
2023-04-18T09:47:49.243Z,13.70
2023-04-18T09:48:49.219Z,14.90
2023-04-18T09:49:49.258Z,15.30
2023-04-18T09:50:49.248Z,17.00
2023-04-18T09:51:49.191Z,17.80
2023-04-18T09:52:49.201Z,17.70
2023-04-18T09:53:49.149Z,16.40
2023-04-18T09:54:49.169Z,16.60
2023-04-18T09:55:49.411Z,15.80
2023-04-18T09:56:49.132Z,14.80
2023-04-18T09:57:49.166Z,18.90
2023-04-18T09:58:49.148Z,21.20
2023-04-18T09:59:49.118Z,18.60
2023-04-18T10:00:49.120Z,17.60
2023-04-18T10:01:49.163Z,18.90
2023-04-18T10:02:49.200Z,20.20
2023-04-18T10:03:49.168Z,16.90
2023-04-18T10:04:49.180Z,18.30
2023-04-18T10:05:49.162Z,17.20
2023-04-18T10:06:49.106Z,19.10
2023-04-18T10:07:49.126Z,20.70
2023-04-18T10:08:49.134Z,19.50
2023-04-18T10:09:49.059Z,17.90
2023-04-18T10:10:49.072Z,21.00
2023-04-18T10:11:49.089Z,22.30
2023-04-18T10:12:49.061Z,18.40
2023-04-18T10:13:49.072Z,18.70
2023-04-18T10:14:49.040Z,17.30
2023-04-18T10:15:50.398Z,20.30
2023-04-18T10:16:50.464Z,20.90
2023-04-18T10:18:02.802Z,18.10
2023-04-18T10:18:50.061Z,16.50
2023-04-18T10:19:48.962Z,22.50
2023-04-18T10:20:49.007Z,18.50
2023-04-18T10:21:48.953Z,21.90
2023-04-18T10:22:49.006Z,18.90
2023-04-18T10:23:49.024Z,21.20
2023-04-18T10:24:48.985Z,23.80
2023-04-18T10:25:48.930Z,21.60
2023-04-18T10:26:49.015Z,21.00
2023-04-18T10:27:49.099Z,19.80
2023-04-18T10:28:48.973Z,19.60
2023-04-18T10:29:48.944Z,17.60
2023-04-18T10:30:49.031Z,19.20
2023-04-18T10:31:48.952Z,18.40
2023-04-18T10:32:48.966Z,18.50
2023-04-18T10:34:48.892Z,19.80
2023-04-18T10:35:48.873Z,23.90
2023-04-18T10:36:48.900Z,22.20
2023-04-18T10:37:48.854Z,20.60
2023-04-18T10:38:48.837Z,22.30
2023-04-18T10:39:49.026Z,18.80
2023-04-18T10:40:48.846Z,19.30
2023-04-18T10:41:49.527Z,18.80
2023-04-18T10:42:48.857Z,22.10
2023-04-18T10:43:48.824Z,21.20
2023-04-18T10:44:48.805Z,19.10
2023-04-18T10:45:48.807Z,20.50
2023-04-18T10:46:48.958Z,20.90
2023-04-18T10:47:48.841Z,22.40
2023-04-18T10:48:48.824Z,26.70
2023-04-18T10:49:48.812Z,24.40
2023-04-18T10:50:48.769Z,24.20
2023-04-18T10:51:48.752Z,22.30
2023-04-18T10:52:48.746Z,19.70
2023-04-18T10:53:48.809Z,21.40
2023-04-18T10:54:49.293Z,22.80
2023-04-18T10:55:48.728Z,21.90
2023-04-18T10:56:48.716Z,20.30
2023-04-18T10:57:48.795Z,28.50
2023-04-18T10:58:48.705Z,18.80
2023-04-18T10:59:48.765Z,16.60
2023-04-18T11:00:49.033Z,17.90
2023-04-18T11:01:48.667Z,21.20
2023-04-18T11:02:48.901Z,25.80
2023-04-18T11:03:48.708Z,24.90
2023-04-18T11:04:48.724Z,25.30
2023-04-18T11:05:48.725Z,21.10
2023-04-18T11:06:48.693Z,18.70
2023-04-18T11:07:48.738Z,20.90
2023-04-18T11:08:48.640Z,17.90
2023-04-18T11:09:48.618Z,19.00
2023-04-18T11:10:48.610Z,19.20
2023-04-18T11:11:48.656Z,21.00
2023-04-18T11:12:48.736Z,20.20
2023-04-18T11:13:48.604Z,19.30
2023-04-18T11:14:48.614Z,21.40
2023-04-18T11:15:48.558Z,20.90
2023-04-18T11:16:48.644Z,21.50
2023-04-18T11:17:48.601Z,20.90
2023-04-18T11:18:48.620Z,23.70
2023-04-18T11:19:48.614Z,21.90
2023-04-18T11:20:48.541Z,23.30
2023-04-18T11:21:48.543Z,24.30
2023-04-18T11:22:48.522Z,22.90
2023-04-18T11:23:48.567Z,21.90
2023-04-18T11:24:48.577Z,19.30
2023-04-18T11:25:48.518Z,22.80
2023-04-18T11:26:48.504Z,24.10
2023-04-18T11:27:48.530Z,20.80
2023-04-18T11:28:48.503Z,24.80
2023-04-18T11:29:48.494Z,20.60
2023-04-18T11:30:48.544Z,22.10
2023-04-18T11:31:48.495Z,27.70
2023-04-18T11:32:48.478Z,27.50
2023-04-18T11:33:48.463Z,23.50
2023-04-18T11:34:48.441Z,21.30
2023-04-18T11:35:48.478Z,22.10
2023-04-18T11:36:48.490Z,21.90
2023-04-18T11:37:48.458Z,22.30
2023-04-18T11:38:48.439Z,20.20
2023-04-18T11:39:48.404Z,21.30
2023-04-18T11:40:48.406Z,20.30
2023-04-18T11:41:48.431Z,23.00
2023-04-18T11:42:48.453Z,20.50
2023-04-18T11:43:48.378Z,20.10
2023-04-18T11:44:48.377Z,21.40
2023-04-18T11:45:48.448Z,20.00
2023-04-18T11:46:48.337Z,22.40
2023-04-18T11:47:48.363Z,22.10
2023-04-18T11:48:48.432Z,21.00
2023-04-18T11:49:48.331Z,21.30
2023-04-18T11:50:48.334Z,21.10
2023-04-18T11:51:48.344Z,25.40
2023-04-18T11:52:48.308Z,22.10
2023-04-18T11:53:48.349Z,23.30
2023-04-18T11:54:48.339Z,20.90
2023-04-18T11:55:48.308Z,23.00
2023-04-18T11:56:48.318Z,20.30
2023-04-18T11:57:48.276Z,23.90
2023-04-18T11:58:48.296Z,19.80
2023-04-18T11:59:48.294Z,20.30
2023-04-18T12:00:48.728Z,20.60
2023-04-18T12:01:48.315Z,19.50
2023-04-18T12:02:48.341Z,19.60
2023-04-18T12:03:48.390Z,20.10
2023-04-18T12:04:48.413Z,18.30
2023-04-18T12:05:48.598Z,18.50
2023-04-18T12:06:48.254Z,15.70
2023-04-18T12:07:48.236Z,17.90
2023-04-18T12:08:48.226Z,17.20
2023-04-18T12:09:48.203Z,16.60
2023-04-18T12:10:48.186Z,17.10
2023-04-18T12:11:48.210Z,17.10
2023-04-18T12:12:48.241Z,18.30
2023-04-18T12:13:48.183Z,16.10
2023-04-18T12:14:48.177Z,16.00
2023-04-18T12:15:48.254Z,17.40
2023-04-18T12:16:48.145Z,15.80
2023-04-18T12:17:48.151Z,15.90
2023-04-18T12:18:48.184Z,16.40
2023-04-18T12:19:49.819Z,15.40
2023-04-18T12:20:48.188Z,15.60
2023-04-18T12:21:48.106Z,15.60
2023-04-18T12:22:48.102Z,17.20
2023-04-18T12:23:48.093Z,14.90
2023-04-18T12:24:48.137Z,16.20
2023-04-18T12:25:48.100Z,16.90
2023-04-18T12:26:48.065Z,16.60
2023-04-18T12:27:48.071Z,16.40
2023-04-18T12:28:48.079Z,16.70
2023-04-18T12:29:48.078Z,15.80
2023-04-18T12:30:48.181Z,16.20
2023-04-18T12:31:48.034Z,17.00
2023-04-18T12:32:48.044Z,15.00
2023-04-18T12:33:48.119Z,16.00
2023-04-18T12:34:48.017Z,14.70
2023-04-18T12:35:49.538Z,14.10
2023-04-18T12:36:48.030Z,16.10
2023-04-18T12:37:47.995Z,14.60
2023-04-18T12:38:47.978Z,17.70
2023-04-18T12:39:47.996Z,16.30
2023-04-18T12:40:48.041Z,17.50
2023-04-18T12:41:49.730Z,16.10
2023-04-18T12:42:48.012Z,16.20
2023-04-18T12:43:47.945Z,17.40
2023-04-18T12:44:48.106Z,16.20
2023-04-18T12:45:47.932Z,16.10
2023-04-18T12:46:48.077Z,16.50
2023-04-18T12:47:48.015Z,15.80
2023-04-18T12:48:47.945Z,15.90
2023-04-18T12:49:47.909Z,18.50
2023-04-18T12:50:47.934Z,15.90
2023-04-18T12:51:47.875Z,19.90
2023-04-18T12:52:47.890Z,16.10
2023-04-18T12:53:47.861Z,14.40